Overview Statistics Trail Chart Weather Telemetry Raw packets
 

This is the latest recevied telemetry packets stored in our database for station/object DG2NPE-6. If no packets are shown the sender has not sent any telemetry packets the latest 10 day(s).

Telemetry packets is used to share measurements like repeteater parameters, battery voltage, radiation readings (or any other measurements).

<< 1 2 >>
Time Press* Temp.in* Hum* eGAS* Temp.out*
1788251259 976.3 hPa 24.8 C deg 39.6 % 117 - 0 C deg
1788249429 976.2 hPa 24.3 C deg 41 % 116 - 0 C deg
1788247599 975.9 hPa 24.1 C deg 40.8 % 116 - 0 C deg
1788245769 975.9 hPa 23.7 C deg 41.1 % 122 - 0 C deg
1788243939 975.8 hPa 23.7 C deg 40.6 % 122 - 0 C deg
1788242109 975.8 hPa 23.6 C deg 40.8 % 122 - 0 C deg
1788240279 975.6 hPa 23.3 C deg 41.1 % 121 - 0 C deg
1788238449 975.5 hPa 22.9 C deg 41.5 % 121 - 0 C deg
1788236619 975.4 hPa 23 C deg 41.3 % 120 - 0 C deg
1788212827 974.1 hPa 23.4 C deg 40.3 % 91 - 0 C deg
1788210997 974.1 hPa 22.5 C deg 43.4 % 32 - 0 C deg
1788110928 969.4 hPa 25.4 C deg 37.6 % 112 - 23.6 C deg
1788109098 969.3 hPa 26 C deg 37 % 110 - 27.2 C deg
1788107268 969.4 hPa 26.3 C deg 36.3 % 110 - 28.2 C deg
1788105438 969.4 hPa 26.8 C deg 35.7 % 110 - 29.1 C deg
1788103608 969.6 hPa 27.4 C deg 35 % 106 - 32.6 C deg
1788101778 969.6 hPa 27.5 C deg 35.2 % 103 - 31.4 C deg
1788099948 969.7 hPa 27.4 C deg 35.5 % 103 - 30.9 C deg
1788098118 969.7 hPa 27.3 C deg 36.4 % 100 - 35.1 C deg
1788096288 969.9 hPa 27 C deg 36.5 % 100 - 31.6 C deg
1788094458 970 hPa 27 C deg 37.3 % 96 - 33.4 C deg
1788092627 970.1 hPa 26.3 C deg 38.4 % 94 - 29.1 C deg
1788090797 970.1 hPa 26.2 C deg 38.6 % 93 - 25.6 C deg
1788088967 970.3 hPa 26.6 C deg 38.3 % 88 - 25.4 C deg
1788087137 970.3 hPa 26.1 C deg 39.6 % 82 - 25.6 C deg
*Used Equation Coefficients:
Press: 0, 1, 0
Temp.in: 0, 1, 0
Hum: 0, 1, 0
eGAS: 0, 1, 0
Temp.out: 0, 1, 0

  • The parameter names for the analog channels will be Value1, Value2, Value3 (up to Value5) if station has not sent a PARAM-packet that specifies the parameter names for each analog channel.
  • Each analog value is a decimal number between 000 and 255 (according to APRS specifications). The receiver use the telemetry equation coefficientsto to restore the original sensor values. If no EQNS-packet with equation coefficients is sent we will show the values as is (this corresponds to the equation coefficients a=0, b=1 and c=0).
    The sent equation coefficients is used in the equation: a * value2 + b * value + c.
  • The units for the analog values will not be shown if station has not sent a UNIT-packet specifying what unit's to use.
  • The parameter names for the digital bits will be Bit1, Bit2, Bit3 (up to Bit8) if station has not sent a PARAM-packet that specifies the parameter names for each digital bit.
  • All bit labels will be named "On" if station has not sent a UNIT-packet that specifies the label of each bit.
  • A bit is considered to be On when the bit is 1 if station has not sent a BITS-packet that specifies another "Bit sense" (a BITS-packet specify the state of the bits that match the BIT labels)